Time;durP1;ratioP1;P1;durP2;ratioP2;P2;SDS_P1;SDS_P2;PMS_P1;PMS_P2;Temp;Humidity;BMP_temperature;BMP_pressure;BME280_temperature;BME280_humidity;BME280_pressure;Samples;Min_cycle;Max_cycle;Signal;HPM_P1;HPM_P2
2023/12/22 00:01:29;;;;;;;346.65;156.48;;;6.20;96.00;;;;;;4995860;28;20050;-56
2023/12/22 00:03:55;;;;;;;354.45;164.85;;;6.10;96.30;;;;;;4994735;28;20069;-56
2023/12/22 00:06:21;;;;;;;369.50;169.75;;;6.10;96.00;;;;;;4995938;28;20081;-56
2023/12/22 00:08:47;;;;;;;349.60;162.93;;;6.20;96.50;;;;;;4994626;28;20034;-56
2023/12/22 00:11:13;;;;;;;336.08;157.23;;;6.20;96.40;;;;;;4996110;28;20049;-56
2023/12/22 00:13:38;;;;;;;322.40;153.60;;;6.20;96.40;;;;;;4995980;28;20035;-56
2023/12/22 00:16:05;;;;;;;301.02;139.65;;;6.10;96.20;;;;;;4995676;28;20038;-56
2023/12/22 00:18:32;;;;;;;275.02;131.43;;;6.10;96.60;;;;;;4994638;28;20462;-56
2023/12/22 00:20:58;;;;;;;295.17;137.32;;;6.00;96.80;;;;;;4995954;28;20125;-56
2023/12/22 00:23:23;;;;;;;284.45;130.95;;;6.10;96.60;;;;;;4995670;28;20026;-56
2023/12/22 00:25:49;;;;;;;313.70;145.50;;;6.10;97.20;;;;;;4995878;28;20045;-56
2023/12/22 00:28:15;;;;;;;319.95;148.57;;;6.00;97.10;;;;;;4994566;28;20046;-56
2023/12/22 00:30:41;;;;;;;311.58;145.15;;;6.00;97.30;;;;;;4995477;28;20050;-56
2023/12/22 00:33:07;;;;;;;329.17;155.38;;;5.90;97.60;;;;;;4995730;28;20030;-55
2023/12/22 00:35:35;;;;;;;350.25;158.40;;;6.00;97.60;;;;;;4998656;28;20054;-56
2023/12/22 00:38:01;;;;;;;338.70;161.13;;;6.00;97.70;;;;;;4999326;28;20337;-56
2023/12/22 00:40:27;;;;;;;322.13;148.50;;;6.10;97.80;;;;;;4999773;28;20089;-56
2023/12/22 00:42:53;;;;;;;323.58;144.45;;;6.10;98.00;;;;;;4999398;28;20498;-56
2023/12/22 00:45:19;;;;;;;308.23;141.90;;;6.20;98.00;;;;;;4998128;28;20031;-56
2023/12/22 00:47:44;;;;;;;311.20;142.80;;;6.20;97.80;;;;;;4999489;28;20039;-56
2023/12/22 00:50:10;;;;;;;299.67;139.10;;;6.20;97.80;;;;;;4999491;28;20472;-56
2023/12/22 00:52:36;;;;;;;296.00;139.25;;;6.20;97.60;;;;;;4999253;28;20060;-56
2023/12/22 00:55:02;;;;;;;295.40;139.73;;;6.30;97.70;;;;;;5004808;28;20049;-56
2023/12/22 00:57:30;;;;;;;292.65;134.43;;;6.30;97.80;;;;;;5018909;28;20052;-56
2023/12/22 00:59:55;;;;;;;301.25;139.30;;;6.30;97.90;;;;;;5017444;28;20034;-56
2023/12/22 01:02:21;;;;;;;291.52;138.68;;;6.40;97.70;;;;;;5018685;28;20041;-56
2023/12/22 01:04:47;;;;;;;287.25;136.25;;;6.40;97.60;;;;;;5017353;28;20034;-56
2023/12/22 01:07:14;;;;;;;290.20;134.20;;;6.40;97.40;;;;;;5018581;28;20018;-56
2023/12/22 01:09:39;;;;;;;291.60;136.63;;;6.50;97.50;;;;;;5017476;28;20040;-56
2023/12/22 01:12:06;;;;;;;285.13;133.20;;;6.50;97.50;;;;;;5018671;28;20022;-56
2023/12/22 01:14:33;;;;;;;286.70;135.23;;;6.50;97.30;;;;;;5018325;28;20034;-56
2023/12/22 01:17:00;;;;;;;293.67;135.38;;;6.50;97.20;;;;;;5018209;28;20073;-56
2023/12/22 01:19:26;;;;;;;290.83;135.45;;;6.50;97.30;;;;;;5018754;28;20048;-56
2023/12/22 01:21:52;;;;;;;275.33;130.45;;;6.60;97.40;;;;;;5018318;28;20053;-56
2023/12/22 01:24:19;;;;;;;238.63;115.28;;;6.50;97.30;;;;;;5018462;28;20034;-56
2023/12/22 01:26:45;;;;;;;240.68;114.10;;;6.40;97.30;;;;;;5018642;28;20076;-56
2023/12/22 01:29:12;;;;;;;240.68;114.47;;;6.30;97.50;;;;;;5018185;28;20018;-56
2023/12/22 01:31:38;;;;;;;233.75;112.28;;;6.10;97.80;;;;;;5018390;28;20048;-56
2023/12/22 01:34:04;;;;;;;241.55;114.53;;;6.10;98.10;;;;;;5018078;28;20046;-56
2023/12/22 01:36:29;;;;;;;244.85;113.45;;;6.20;98.30;;;;;;5016588;28;20049;-56
2023/12/22 01:38:55;;;;;;;248.82;117.18;;;6.20;98.40;;;;;;5018167;28;20105;-56
2023/12/22 01:41:24;;;;;;;250.48;119.90;;;6.00;98.40;;;;;;5018176;28;20036;-56
2023/12/22 01:43:50;;;;;;;271.42;129.40;;;5.90;98.70;;;;;;5016544;28;20109;-56
2023/12/22 01:46:16;;;;;;;269.27;126.65;;;5.90;98.80;;;;;;5017037;28;20514;-56
2023/12/22 01:48:42;;;;;;;320.55;147.68;;;5.80;99.00;;;;;;5018096;28;20478;-56
2023/12/22 01:51:08;;;;;;;343.55;164.95;;;5.90;99.20;;;;;;5017714;28;20026;-56
2023/12/22 01:53:35;;;;;;;338.40;162.50;;;5.90;99.20;;;;;;5017922;28;20025;-55
2023/12/22 01:56:02;;;;;;;299.92;145.20;;;5.90;99.30;;;;;;5004111;28;20034;-56
2023/12/22 01:58:30;;;;;;;287.98;135.38;;;5.80;99.70;;;;;;4997775;28;20038;-56
2023/12/22 02:01:04;;;;;;;269.20;126.35;;;5.80;99.90;;;;;;4997032;28;20042;-55
2023/12/22 02:03:30;;;;;;;292.10;134.38;;;5.90;99.90;;;;;;4998101;28;20026;-55
2023/12/22 02:05:56;;;;;;;382.80;156.98;;;5.80;99.90;;;;;;4997923;28;20092;-56
2023/12/22 02:08:24;;;;;;;269.23;125.03;;;5.80;99.90;;;;;;4997927;28;20085;-56
2023/12/22 02:10:50;;;;;;;269.17;125.28;;;5.80;99.90;;;;;;4998051;28;20065;-56
2023/12/22 02:13:15;;;;;;;295.88;125.97;;;5.70;99.90;;;;;;4997700;28;20471;-56
2023/12/22 02:15:41;;;;;;;318.90;136.55;;;5.60;99.90;;;;;;4998045;28;20487;-56
2023/12/22 02:18:14;;;;;;;290.25;132.50;;;5.50;99.90;;;;;;4980543;28;20054;-56
2023/12/22 02:20:40;;;;;;;270.85;124.70;;;5.50;99.90;;;;;;4996328;28;20061;-56
2023/12/22 02:23:06;;;;;;;280.35;127.80;;;5.40;99.90;;;;;;4997864;28;20456;-56
2023/12/22 02:25:32;;;;;;;279.98;130.43;;;5.40;99.90;;;;;;4996157;28;20038;-56
2023/12/22 02:28:03;;;;;;;284.88;131.27;;;5.20;99.90;;;;;;4996170;28;20467;-56
2023/12/22 02:30:49;;;;;;;304.38;135.88;;;5.20;99.90;;;;;;4997715;28;20109;-56
2023/12/22 02:33:16;;;;;;;293.88;132.98;;;5.30;99.90;;;;;;4997572;28;20052;-56
2023/12/22 02:35:44;;;;;;;257.10;117.10;;;5.30;99.90;;;;;;4997110;28;20048;-56
2023/12/22 02:38:12;;;;;;;409.35;154.05;;;5.40;99.90;;;;;;4996213;28;20054;-56
2023/12/22 02:40:39;;;;;;;446.83;167.77;;;5.40;99.90;;;;;;4995487;28;20034;-56
2023/12/22 02:43:06;;;;;;;413.25;160.02;;;5.30;99.90;;;;;;4996652;28;20038;-56
2023/12/22 02:45:32;;;;;;;409.60;158.00;;;5.30;99.90;;;;;;4997359;28;20117;-55
2023/12/22 02:47:58;;;;;;;354.55;140.60;;;5.30;99.90;;;;;;4997116;28;20073;-56
2023/12/22 02:50:24;;;;;;;331.02;133.55;;;5.30;99.90;;;;;;4997375;28;20448;-56
2023/12/22 02:52:50;;;;;;;401.15;149.30;;;5.40;99.90;;;;;;4979761;28;20194;-56
2023/12/22 02:55:16;;;;;;;404.98;147.20;;;5.40;99.90;;;;;;5004629;28;20289;-56
2023/12/22 02:57:42;;;;;;;496.50;173.00;;;5.50;99.90;;;;;;5013366;28;20105;-56
2023/12/22 03:00:08;;;;;;;486.05;167.05;;;5.50;99.90;;;;;;5016682;28;20037;-55
2023/12/22 03:02:34;;;;;;;475.15;158.80;;;5.50;99.90;;;;;;5016258;28;20133;-56
2023/12/22 03:05:00;;;;;;;300.58;115.47;;;5.50;99.90;;;;;;5016463;28;20072;-55
2023/12/22 03:07:25;;;;;;;337.83;124.80;;;5.50;99.90;;;;;;5016552;28;20026;-56
2023/12/22 03:09:51;;;;;;;436.92;159.73;;;5.40;99.90;;;;;;5016410;28;20483;-56
2023/12/22 03:12:17;;;;;;;434.15;163.13;;;5.40;99.90;;;;;;5016390;28;20117;-56
2023/12/22 03:14:43;;;;;;;497.98;188.65;;;5.40;99.90;;;;;;5016428;28;20025;-56
2023/12/22 03:17:10;;;;;;;432.58;165.60;;;5.40;99.90;;;;;;5016208;28;20483;-56
2023/12/22 03:19:36;;;;;;;430.02;161.15;;;5.30;99.90;;;;;;5016147;28;20337;-56
2023/12/22 03:22:03;;;;;;;418.60;156.05;;;5.30;99.90;;;;;;5016288;28;20022;-56
2023/12/22 03:24:29;;;;;;;389.10;150.18;;;5.30;99.90;;;;;;5016177;28;20062;-56
2023/12/22 03:26:55;;;;;;;454.08;165.57;;;5.50;99.90;;;;;;5015920;28;20033;-56
2023/12/22 03:29:21;;;;;;;450.83;166.90;;;5.50;99.90;;;;;;5016111;28;20104;-56
2023/12/22 03:31:47;;;;;;;409.70;156.45;;;5.50;99.90;;;;;;5016106;28;20029;-56
2023/12/22 03:34:13;;;;;;;409.17;152.13;;;5.40;99.90;;;;;;5015993;28;20022;-56
2023/12/22 03:36:39;;;;;;;368.65;145.57;;;5.40;99.90;;;;;;5015896;28;20026;-56
2023/12/22 03:39:05;;;;;;;300.92;125.45;;;5.50;99.90;;;;;;5015759;28;20034;-56
2023/12/22 03:41:31;;;;;;;319.83;130.27;;;5.70;99.90;;;;;;5015961;28;20503;-56
2023/12/22 03:43:58;;;;;;;316.63;131.10;;;5.70;99.90;;;;;;5015602;28;20040;-56
2023/12/22 03:46:24;;;;;;;265.10;117.20;;;5.80;99.90;;;;;;5015840;28;20088;-56
2023/12/22 03:48:51;;;;;;;242.48;111.85;;;5.80;99.90;;;;;;5015952;28;20037;-56
2023/12/22 03:51:17;;;;;;;238.32;107.03;;;5.80;99.90;;;;;;5014466;28;20060;-56
2023/12/22 03:53:43;;;;;;;249.85;104.20;;;6.00;99.90;;;;;;5015733;28;20038;-56
2023/12/22 03:56:09;;;;;;;392.98;144.93;;;6.00;99.90;;;;;;5000876;28;20030;-56
2023/12/22 03:58:36;;;;;;;259.45;109.95;;;6.00;99.90;;;;;;4995860;28;20028;-56
2023/12/22 04:01:02;;;;;;;319.13;128.85;;;6.00;99.90;;;;;;4996199;28;20027;-56
2023/12/22 04:03:28;;;;;;;251.75;112.93;;;6.10;99.90;;;;;;4978409;28;20478;-56
2023/12/22 04:05:54;;;;;;;252.95;114.75;;;6.10;99.90;;;;;;4995935;28;20023;-56
2023/12/22 04:08:22;;;;;;;232.02;107.18;;;6.20;99.90;;;;;;4995965;28;20038;-56
2023/12/22 04:10:49;;;;;;;227.00;103.43;;;6.20;99.90;;;;;;4995657;28;20117;-56
2023/12/22 04:13:14;;;;;;;238.00;106.93;;;6.30;99.90;;;;;;4995774;28;20036;-56
2023/12/22 04:15:40;;;;;;;286.23;124.28;;;6.30;99.90;;;;;;4994624;28;20048;-56
2023/12/22 04:18:06;;;;;;;312.70;140.70;;;6.30;99.90;;;;;;4995854;28;20062;-56
2023/12/22 04:20:32;;;;;;;319.98;147.73;;;6.30;99.90;;;;;;4995712;28;20029;-56
2023/12/22 04:22:58;;;;;;;321.27;142.45;;;6.30;99.90;;;;;;4995797;28;20061;-56
2023/12/22 04:25:25;;;;;;;310.17;132.32;;;6.30;99.90;;;;;;4996043;28;20057;-56
2023/12/22 04:27:52;;;;;;;260.85;107.78;;;6.30;99.90;;;;;;4995516;28;20087;-56
2023/12/22 04:30:18;;;;;;;470.13;192.60;;;6.20;99.90;;;;;;4994554;28;20491;-56
2023/12/22 04:32:44;;;;;;;343.42;140.10;;;6.30;99.90;;;;;;4995892;28;20038;-56
2023/12/22 04:35:09;;;;;;;293.88;121.82;;;6.30;99.90;;;;;;4995445;28;20113;-56
2023/12/22 04:37:35;;;;;;;241.63;118.00;;;6.20;99.90;;;;;;4994432;28;20081;-56
2023/12/22 04:40:01;;;;;;;234.48;116.30;;;6.20;99.90;;;;;;4994449;28;20034;-56
2023/12/22 04:42:28;;;;;;;191.35;94.13;;;6.30;99.90;;;;;;4994969;28;20039;-56
2023/12/22 04:44:54;;;;;;;202.25;95.72;;;6.30;99.90;;;;;;4995562;28;20125;-56
2023/12/22 04:47:20;;;;;;;186.35;87.13;;;6.40;99.90;;;;;;4995726;28;20061;-56
2023/12/22 04:49:46;;;;;;;160.02;79.07;;;6.50;99.90;;;;;;4995429;28;20031;-56
2023/12/22 04:52:12;;;;;;;160.27;81.30;;;6.50;99.90;;;;;;4995634;28;20062;-56
2023/12/22 04:54:38;;;;;;;166.32;82.82;;;6.50;99.90;;;;;;4997959;28;20388;-56
2023/12/22 04:57:04;;;;;;;205.13;97.82;;;6.50;99.90;;;;;;5014900;28;20187;-56
2023/12/22 04:59:30;;;;;;;172.63;85.15;;;6.50;99.90;;;;;;5015212;28;20022;-56
2023/12/22 05:01:56;;;;;;;202.05;101.78;;;6.60;99.90;;;;;;5013817;28;20121;-56
2023/12/22 05:04:22;;;;;;;263.77;132.68;;;6.60;99.90;;;;;;5015460;28;20021;-56
2023/12/22 05:06:48;;;;;;;295.38;136.02;;;6.60;99.90;;;;;;5015082;28;20478;-56
2023/12/22 05:09:15;;;;;;;260.13;131.52;;;6.50;99.90;;;;;;5014974;28;20033;-56
2023/12/22 05:11:41;;;;;;;219.15;113.28;;;6.50;99.90;;;;;;5014868;28;20033;-56
2023/12/22 05:14:07;;;;;;;233.63;117.10;;;6.50;99.90;;;;;;5015224;28;20038;-56
2023/12/22 05:16:33;;;;;;;216.88;107.18;;;6.50;99.90;;;;;;5014766;28;20065;-56
2023/12/22 05:18:59;;;;;;;174.88;90.15;;;6.50;99.90;;;;;;5014729;28;20077;-56
2023/12/22 05:21:25;;;;;;;174.50;87.25;;;6.60;99.90;;;;;;5016109;28;20022;-56
2023/12/22 05:23:51;;;;;;;150.40;77.47;;;6.70;99.90;;;;;;5018414;28;20041;-56
2023/12/22 05:26:18;;;;;;;132.13;70.60;;;6.70;99.90;;;;;;5017992;28;20041;-56
2023/12/22 05:28:45;;;;;;;134.98;69.25;;;6.80;99.90;;;;;;5018436;28;20033;-56
2023/12/22 05:31:11;;;;;;;139.50;69.75;;;6.80;99.90;;;;;;5017062;28;20061;-56
2023/12/22 05:33:36;;;;;;;128.88;66.03;;;6.80;99.90;;;;;;5017869;28;20042;-56
2023/12/22 05:36:03;;;;;;;128.32;67.50;;;6.70;99.90;;;;;;5016934;28;20093;-56
2023/12/22 05:38:29;;;;;;;127.82;64.80;;;6.60;99.90;;;;;;5018108;28;20054;-56
2023/12/22 05:40:55;;;;;;;133.68;70.43;;;6.60;99.90;;;;;;5017878;28;20037;-56
2023/12/22 05:43:20;;;;;;;125.50;65.85;;;6.60;99.90;;;;;;5017810;28;20022;-56
2023/12/22 05:45:46;;;;;;;127.05;67.30;;;6.70;99.90;;;;;;5018264;28;20030;-56
2023/12/22 05:48:12;;;;;;;131.77;71.75;;;6.70;99.90;;;;;;5017557;28;20033;-56
2023/12/22 05:50:38;;;;;;;136.57;68.22;;;6.70;99.90;;;;;;5017962;28;20069;-56
2023/12/22 05:53:04;;;;;;;130.43;66.72;;;6.60;99.90;;;;;;5016330;28;20034;-56
2023/12/22 05:55:30;;;;;;;127.45;65.65;;;6.60;99.90;;;;;;5008062;28;20113;-56
2023/12/22 05:57:56;;;;;;;158.90;75.80;;;6.70;99.90;;;;;;4998198;28;20058;-56
2023/12/22 06:00:22;;;;;;;120.25;61.03;;;6.60;99.90;;;;;;4998030;28;20026;-56
2023/12/22 06:02:48;;;;;;;121.40;62.40;;;6.80;99.90;;;;;;4997800;28;20030;-56
2023/12/22 06:05:13;;;;;;;126.57;61.00;;;6.80;99.90;;;;;;4996789;28;20034;-56
2023/12/22 06:07:40;;;;;;;107.65;56.05;;;6.80;99.90;;;;;;4996108;28;20038;-56
2023/12/22 06:10:09;;;;;;;101.60;50.80;;;6.80;99.90;;;;;;4997764;28;20085;-56
2023/12/22 06:12:35;;;;;;;98.07;45.95;;;6.90;99.90;;;;;;4998065;28;20034;-56
2023/12/22 06:15:01;;;;;;;83.07;37.45;;;7.00;99.90;;;;;;4996322;28;20018;-56
2023/12/22 06:17:27;;;;;;;99.15;46.30;;;7.10;99.90;;;;;;4996002;28;20053;-56
2023/12/22 06:19:53;;;;;;;81.80;35.72;;;7.20;99.90;;;;;;4998373;28;20080;-56
2023/12/22 06:22:19;;;;;;;64.88;28.90;;;7.20;99.90;;;;;;5013878;28;20041;-56
2023/12/22 06:24:45;;;;;;;74.53;38.55;;;7.20;99.90;;;;;;5001786;28;20034;-56
2023/12/22 06:27:10;;;;;;;63.47;27.35;;;7.30;99.90;;;;;;4996002;28;20043;-56
2023/12/22 06:29:36;;;;;;;44.78;22.27;;;7.30;99.90;;;;;;4996759;28;20029;-56
2023/12/22 06:32:05;;;;;;;33.05;17.15;;;7.40;99.90;;;;;;4995959;28;20034;-56
2023/12/22 06:34:31;;;;;;;40.53;22.35;;;7.30;99.90;;;;;;4998063;28;20089;-56
2023/12/22 06:36:58;;;;;;;35.20;20.00;;;7.30;99.90;;;;;;5012305;28;20042;-56
2023/12/22 06:39:24;;;;;;;53.67;28.80;;;7.40;99.90;;;;;;4997299;28;20023;-56
2023/12/22 06:41:51;;;;;;;50.33;25.83;;;7.40;99.90;;;;;;4997350;28;20027;-56
2023/12/22 06:44:17;;;;;;;57.28;31.05;;;7.40;99.90;;;;;;4996541;28;20038;-56
2023/12/22 06:46:42;;;;;;;59.58;32.58;;;7.40;99.90;;;;;;4985629;28;20045;-56
2023/12/22 06:49:08;;;;;;;46.80;28.05;;;7.40;99.90;;;;;;4996774;28;20034;-56
2023/12/22 06:51:35;;;;;;;42.75;26.48;;;7.40;99.90;;;;;;4979527;28;20564;-56
2023/12/22 06:54:01;;;;;;;32.25;19.73;;;7.30;99.90;;;;;;4994503;28;20042;-56
2023/12/22 06:56:30;;;;;;;39.15;21.63;;;7.40;99.90;;;;;;5005498;28;21737;-56
2023/12/22 06:58:57;;;;;;;37.28;24.20;;;7.40;99.90;;;;;;4989138;28;20089;-56
2023/12/22 07:01:34;;;;;;;44.13;26.38;;;7.40;99.90;;;;;;5015527;28;20110;-56
2023/12/22 07:04:01;;;;;;;52.55;29.55;;;7.40;99.90;;;;;;5004128;28;20117;-56
2023/12/22 07:06:30;;;;;;;194.05;76.90;;;7.40;99.90;;;;;;4995520;28;20551;-56
2023/12/22 07:09:20;;;;;;;292.30;118.13;;;7.40;99.90;;;;;;5007521;28;20037;-56
2023/12/22 07:11:58;;;;;;;203.77;90.77;;;7.40;99.90;;;;;;5015433;28;20336;-56
2023/12/22 07:14:24;;;;;;;169.38;82.75;;;7.40;99.90;;;;;;5016958;28;20113;-56
2023/12/22 07:16:50;;;;;;;90.35;44.45;;;7.40;99.90;;;;;;4998507;28;20027;-56
2023/12/22 07:19:16;;;;;;;161.77;60.33;;;7.30;99.90;;;;;;4997085;28;20046;-56
2023/12/22 07:21:42;;;;;;;142.00;62.20;;;7.40;99.90;;;;;;4995856;28;20066;-56
2023/12/22 07:24:08;;;;;;;89.88;51.58;;;7.40;99.90;;;;;;4999397;28;20049;-56
2023/12/22 07:26:34;;;;;;;51.70;27.88;;;7.40;99.90;;;;;;4998362;28;20125;-57
2023/12/22 07:29:00;;;;;;;44.00;25.13;;;7.40;99.90;;;;;;4985578;28;20477;-56
2023/12/22 07:31:25;;;;;;;49.72;30.02;;;7.40;99.90;;;;;;4978831;28;20058;-56
2023/12/22 07:33:52;;;;;;;112.95;55.38;;;7.40;99.90;;;;;;4987658;28;20045;-56
2023/12/22 07:36:18;;;;;;;89.15;47.50;;;7.40;99.90;;;;;;4988671;28;20037;-56
2023/12/22 07:38:44;;;;;;;71.28;42.70;;;7.30;99.90;;;;;;4995609;28;20030;-56
2023/12/22 07:41:10;;;;;;;73.25;39.05;;;7.30;99.90;;;;;;4995212;28;20065;-56
2023/12/22 07:43:36;;;;;;;76.70;41.85;;;7.30;99.90;;;;;;4996062;28;20031;-56
2023/12/22 07:46:02;;;;;;;74.80;37.85;;;7.30;99.90;;;;;;4995664;28;20033;-56
2023/12/22 07:48:29;;;;;;;72.05;36.85;;;7.40;99.90;;;;;;4992807;28;20030;-56
2023/12/22 07:50:55;;;;;;;80.97;43.92;;;7.40;99.90;;;;;;4985611;28;20030;-56
2023/12/22 07:53:21;;;;;;;72.47;33.55;;;7.50;99.90;;;;;;4992925;28;20026;-56
2023/12/22 07:55:47;;;;;;;57.83;32.08;;;7.60;99.90;;;;;;4984076;28;20030;-56
2023/12/22 07:58:13;;;;;;;62.88;32.53;;;7.60;99.90;;;;;;4987297;28;20475;-56
2023/12/22 08:00:40;;;;;;;61.75;34.78;;;7.70;99.90;;;;;;4982568;28;20046;-56
2023/12/22 08:03:06;;;;;;;75.53;40.17;;;7.70;99.90;;;;;;4987081;28;20034;-56
2023/12/22 08:05:33;;;;;;;78.03;44.50;;;7.90;99.90;;;;;;4982849;28;20102;-56
2023/12/22 08:07:59;;;;;;;84.03;44.28;;;7.90;99.90;;;;;;4986617;28;20042;-56
2023/12/22 08:10:24;;;;;;;86.20;47.58;;;8.00;99.90;;;;;;4982306;28;20027;-56
2023/12/22 08:12:50;;;;;;;82.75;47.67;;;8.10;99.90;;;;;;4985327;28;20045;-56
2023/12/22 08:15:16;;;;;;;83.70;45.72;;;8.10;99.90;;;;;;4984226;28;20034;-56
2023/12/22 08:17:49;;;;;;;77.47;45.50;;;8.20;99.90;;;;;;4986184;28;20041;-56
2023/12/22 08:20:19;;;;;;;108.43;54.42;;;8.20;99.90;;;;;;4985232;28;20460;-56
2023/12/22 08:22:50;;;;;;;51.42;29.38;;;8.20;99.90;;;;;;4985631;28;20023;-56
2023/12/22 08:25:19;;;;;;;47.80;27.10;;;8.00;99.90;;;;;;4986966;28;20042;-56
2023/12/22 08:27:47;;;;;;;54.72;28.55;;;8.00;99.90;;;;;;4984188;28;20027;-56
2023/12/22 08:30:14;;;;;;;69.40;40.58;;;8.00;99.90;;;;;;4986871;28;20034;-56
2023/12/22 08:32:40;;;;;;;51.70;32.13;;;8.00;99.90;;;;;;4986790;28;20037;-56
2023/12/22 08:35:06;;;;;;;53.55;32.30;;;8.00;99.90;;;;;;4989638;28;20444;-56
2023/12/22 08:37:33;;;;;;;71.45;41.70;;;7.90;99.90;;;;;;4995076;28;20471;-56
2023/12/22 08:39:59;;;;;;;86.60;44.78;;;7.90;99.90;;;;;;4994441;28;20025;-56
2023/12/22 08:42:26;;;;;;;95.50;44.80;;;8.00;99.90;;;;;;4996055;28;20027;-56
2023/12/22 08:44:52;;;;;;;88.22;41.00;;;8.00;99.90;;;;;;4991315;28;20089;-56
2023/12/22 08:47:19;;;;;;;95.32;43.20;;;7.90;99.90;;;;;;4990887;28;20042;-55
2023/12/22 08:49:45;;;;;;;101.68;47.30;;;7.90;99.90;;;;;;4989895;28;20018;-56
2023/12/22 08:52:11;;;;;;;110.07;51.58;;;7.90;99.90;;;;;;5003403;28;20038;-56
2023/12/22 08:54:36;;;;;;;109.57;51.35;;;7.90;99.90;;;;;;4988959;28;20361;-56
2023/12/22 08:57:02;;;;;;;104.07;52.40;;;7.90;99.90;;;;;;4992177;28;20019;-56
2023/12/22 08:59:28;;;;;;;96.85;49.03;;;8.00;99.90;;;;;;4998192;28;20096;-56
2023/12/22 09:01:55;;;;;;;84.82;40.38;;;8.00;99.90;;;;;;4998595;28;20022;-56
2023/12/22 09:04:22;;;;;;;80.03;43.20;;;8.00;99.90;;;;;;4991565;28;20080;-56
2023/12/22 09:06:51;;;;;;;82.45;39.65;;;8.00;99.90;;;;;;4993426;28;20034;-56
2023/12/22 09:09:17;;;;;;;68.80;34.75;;;8.00;99.90;;;;;;4991698;28;20137;-56
2023/12/22 09:11:44;;;;;;;83.95;43.20;;;7.90;99.90;;;;;;4997731;28;20540;-56
2023/12/22 09:14:10;;;;;;;79.25;38.92;;;8.00;99.90;;;;;;4999180;28;20026;-56
2023/12/22 09:16:37;;;;;;;73.10;37.67;;;8.00;99.90;;;;;;4998064;28;20085;-56
2023/12/22 09:19:04;;;;;;;64.40;32.10;;;7.90;99.90;;;;;;4992708;28;20046;-56
2023/12/22 09:21:30;;;;;;;66.25;32.38;;;7.90;99.90;;;;;;4999444;28;20022;-56
2023/12/22 09:23:55;;;;;;;62.88;28.15;;;7.90;99.90;;;;;;4998771;28;20027;-56
2023/12/22 09:26:21;;;;;;;50.60;25.25;;;7.80;99.90;;;;;;4998760;28;20026;-56
2023/12/22 09:28:47;;;;;;;48.25;25.13;;;7.80;99.90;;;;;;4998531;28;20038;-56
2023/12/22 09:31:14;;;;;;;38.50;21.48;;;7.70;99.90;;;;;;4998323;28;20043;-56
2023/12/22 09:33:41;;;;;;;51.72;28.40;;;7.80;99.90;;;;;;4997680;28;20109;-56
2023/12/22 09:36:07;;;;;;;70.32;36.20;;;7.80;99.90;;;;;;4997526;28;20030;-56
2023/12/22 09:38:33;;;;;;;68.18;33.70;;;7.90;99.90;;;;;;4997869;28;20053;-56
2023/12/22 09:41:00;;;;;;;59.35;29.70;;;7.90;99.90;;;;;;4997450;28;20117;-56
2023/12/22 09:43:26;;;;;;;62.33;30.08;;;8.00;99.90;;;;;;4995246;28;20062;-56
2023/12/22 09:45:54;;;;;;;61.10;35.47;;;7.90;99.90;;;;;;4997834;28;20054;-56
2023/12/22 09:48:27;;;;;;;65.47;30.45;;;8.00;99.90;;;;;;4997462;28;20037;-56
2023/12/22 09:50:54;;;;;;;89.07;42.05;;;8.00;99.90;;;;;;4998058;28;20038;-57
2023/12/22 09:53:20;;;;;;;77.93;37.30;;;8.00;99.90;;;;;;5015371;28;20113;-56
2023/12/22 09:55:48;;;;;;;51.90;27.98;;;8.10;99.90;;;;;;5017753;28;20029;-56
2023/12/22 09:58:16;;;;;;;51.15;27.77;;;8.10;99.90;;;;;;5016849;28;20034;-56
2023/12/22 10:00:43;;;;;;;39.00;21.67;;;8.20;99.90;;;;;;5017431;28;20026;-56
2023/12/22 10:03:11;;;;;;;44.78;25.10;;;8.30;99.90;;;;;;5017544;28;20030;-56
2023/12/22 10:05:39;;;;;;;45.58;26.58;;;8.40;99.90;;;;;;5017314;28;20491;-56
2023/12/22 10:08:06;;;;;;;52.67;30.88;;;8.40;99.90;;;;;;4994734;28;20228;-56
2023/12/22 10:10:33;;;;;;;92.00;42.13;;;8.40;99.90;;;;;;4979820;28;20045;-56
2023/12/22 10:12:59;;;;;;;84.28;40.10;;;8.50;99.90;;;;;;4977723;28;20059;-56
2023/12/22 10:15:26;;;;;;;68.90;32.47;;;8.50;99.90;;;;;;4992838;28;20223;-56
2023/12/22 10:17:53;;;;;;;57.83;29.10;;;8.50;99.90;;;;;;4997146;28;20030;-57
2023/12/22 10:20:19;;;;;;;87.40;52.20;;;8.60;99.90;;;;;;4996534;28;20399;-56
2023/12/22 10:22:46;;;;;;;132.98;66.53;;;8.60;99.90;;;;;;4996566;28;20037;-57
2023/12/22 10:25:16;;;;;;;67.15;36.10;;;8.60;99.90;;;;;;4991192;28;20026;-56
2023/12/22 10:27:43;;;;;;;55.72;34.63;;;8.70;99.90;;;;;;4982115;28;20026;-56
2023/12/22 10:30:10;;;;;;;51.53;31.50;;;8.70;99.90;;;;;;4997453;28;20054;-56
2023/12/22 10:32:43;;;;;;;51.70;29.55;;;8.70;99.90;;;;;;4997004;28;20365;-57
2023/12/22 10:35:09;;;;;;;48.60;29.90;;;8.80;99.90;;;;;;4996838;28;20472;-57
2023/12/22 10:37:36;;;;;;;51.80;30.40;;;8.80;99.90;;;;;;4996780;28;20026;-56
2023/12/22 10:40:05;;;;;;;122.82;61.58;;;8.90;99.90;;;;;;4990205;28;20018;-56
2023/12/22 10:42:32;;;;;;;82.95;39.10;;;8.90;99.90;;;;;;4986287;28;20050;-57
2023/12/22 10:44:58;;;;;;;62.85;32.88;;;8.90;99.90;;;;;;4996784;28;20027;-56
2023/12/22 10:47:24;;;;;;;90.90;49.55;;;9.00;99.90;;;;;;4981393;28;20076;-56
2023/12/22 10:49:51;;;;;;;120.28;65.55;;;9.00;99.90;;;;;;4977721;28;20388;-56
2023/12/22 10:52:18;;;;;;;311.20;161.95;;;9.00;99.90;;;;;;4985457;28;20050;-57
2023/12/22 10:54:44;;;;;;;154.25;84.43;;;9.00;99.90;;;;;;4986794;28;20022;-57
2023/12/22 10:57:11;;;;;;;150.75;83.05;;;8.90;99.90;;;;;;4987000;28;20046;-56
2023/12/22 10:59:45;;;;;;;106.80;57.20;;;8.90;99.90;;;;;;4995250;28;20062;-56
2023/12/22 11:02:19;;;;;;;75.90;36.10;;;8.90;99.90;;;;;;4996442;28;20030;-56
2023/12/22 11:05:08;;;;;;;84.10;43.42;;;8.90;99.90;;;;;;4993049;28;20037;-56
2023/12/22 11:07:36;;;;;;;85.60;44.05;;;9.00;99.90;;;;;;5000136;28;20034;-56
2023/12/22 11:10:06;;;;;;;52.13;26.63;;;8.90;99.90;;;;;;4992134;28;20118;-56
2023/12/22 11:12:37;;;;;;;57.40;28.55;;;9.00;99.90;;;;;;4993580;28;20039;-57
2023/12/22 11:15:06;;;;;;;54.60;28.63;;;9.00;99.90;;;;;;4997001;28;20038;-56
2023/12/22 11:17:33;;;;;;;43.08;22.58;;;9.00;99.90;;;;;;4994455;28;20077;-57
2023/12/22 11:19:59;;;;;;;43.42;22.02;;;9.00;99.90;;;;;;4994443;28;20498;-57
2023/12/22 11:22:26;;;;;;;47.50;26.50;;;9.00;99.90;;;;;;4996161;28;20387;-56
2023/12/22 11:24:52;;;;;;;40.05;24.33;;;8.90;99.90;;;;;;4994363;28;20428;-57
2023/12/22 11:27:19;;;;;;;42.28;24.85;;;9.00;99.90;;;;;;4987794;28;20045;-57
2023/12/22 11:29:49;;;;;;;44.92;26.80;;;9.00;99.90;;;;;;4985799;28;20078;-56
2023/12/22 11:32:17;;;;;;;49.30;25.30;;;9.00;99.90;;;;;;4990908;28;20027;-56
2023/12/22 11:34:45;;;;;;;43.13;25.02;;;9.10;99.90;;;;;;4996136;28;20455;-57
2023/12/22 11:37:16;;;;;;;41.97;24.65;;;9.20;99.90;;;;;;4994936;28;20490;-57
2023/12/22 11:39:43;;;;;;;49.85;25.52;;;9.20;99.90;;;;;;4991601;28;20117;-57
2023/12/22 11:42:29;;;;;;;54.28;27.80;;;9.20;99.90;;;;;;5015811;28;20030;-57
2023/12/22 11:44:55;;;;;;;67.05;31.90;;;9.30;99.90;;;;;;5005654;28;20539;-57
2023/12/22 11:47:25;;;;;;;91.20;40.95;;;9.20;99.90;;;;;;4995936;28;20041;-57
2023/12/22 11:49:51;;;;;;;45.97;24.80;;;9.10;99.90;;;;;;4994653;28;20043;-57
2023/12/22 11:52:24;;;;;;;42.50;23.60;;;9.20;99.90;;;;;;4996159;28;20361;-56
2023/12/22 11:54:52;;;;;;;35.05;21.05;;;9.40;99.90;;;;;;4992093;28;20037;-57
2023/12/22 11:57:31;;;;;;;37.83;21.63;;;10.10;99.90;;;;;;5007440;28;20038;-57
2023/12/22 12:00:34;;;;;;;69.68;31.63;;;10.60;99.90;;;;;;5005017;28;20031;-57
2023/12/22 12:03:06;;;;;;;33.10;20.05;;;11.00;99.90;;;;;;4991399;28;20038;-57
2023/12/22 12:05:32;;;;;;;36.20;19.20;;;11.50;99.90;;;;;;4995718;28;20041;-57
2023/12/22 12:08:07;;;;;;;33.25;19.92;;;12.30;99.90;;;;;;4993839;28;20030;-57
2023/12/22 12:10:33;;;;;;;46.83;26.25;;;13.80;99.90;;;;;;4990953;28;20034;-57
2023/12/22 12:13:13;;;;;;;40.08;20.98;;;14.70;96.80;;;;;;4996017;28;20420;-57
2023/12/22 12:15:39;;;;;;;36.25;20.63;;;15.80;94.80;;;;;;4995549;28;20117;-57
2023/12/22 12:18:05;;;;;;;35.00;19.63;;;16.30;91.10;;;;;;5013894;28;20054;-57
2023/12/22 12:20:32;;;;;;;36.35;20.13;;;16.60;86.70;;;;;;5015761;28;20021;-57
2023/12/22 12:23:00;;;;;;;27.58;16.35;;;16.20;84.30;;;;;;5015232;28;20415;-57
2023/12/22 12:25:32;;;;;;;29.33;17.08;;;15.20;84.00;;;;;;5014089;28;20040;-57